Time;durP1;ratioP1;P1;durP2;ratioP2;P2;SDS_P1;SDS_P2;PMS_P1;PMS_P2;Temp;Humidity;BMP_temperature;BMP_pressure;BME280_temperature;BME280_humidity;BME280_pressure;Samples;Min_cycle;Max_cycle;Signal;HPM_P1;HPM_P2
2022/04/28 00:02:12;;;;;;;9.57;2.78;;;;;;;;;;10328116;28;20038;-61
2022/04/28 00:07:13;;;;;;;2.90;2.40;;;;;;;;;;10325877;28;20077;-61
2022/04/28 00:12:14;;;;;;;4.35;2.40;;;;;;;;;;10327249;28;20065;-61
2022/04/28 00:17:14;;;;;;;4.72;2.45;;;;;;;;;;10327397;28;20077;-61
2022/04/28 00:22:16;;;;;;;3.28;2.10;;;;;;;;;;10327097;28;20117;-61
2022/04/28 00:27:18;;;;;;;7.22;2.35;;;;;;;;;;10326315;28;20077;-60
2022/04/28 00:32:19;;;;;;;6.57;2.13;;;;;;;;;;10319243;28;20034;-61
2022/04/28 00:37:20;;;;;;;4.65;2.63;;;;;;;;;;10325511;28;20084;-62
2022/04/28 00:42:21;;;;;;;9.90;2.47;;;;;;;;;;10326527;28;20116;-61
2022/04/28 00:47:22;;;;;;;4.30;2.38;;;;;;;;;;10318490;28;20402;-61
2022/04/28 00:52:24;;;;;;;4.43;2.45;;;;;;;;;;10326219;28;20109;-62
2022/04/28 00:57:27;;;;;;;3.55;2.13;;;;;;;;;;10320060;28;20167;-61
2022/04/28 01:02:28;;;;;;;3.63;2.33;;;;;;;;;;10325515;28;20516;-61
2022/04/28 01:07:29;;;;;;;4.57;2.17;;;;;;;;;;10325358;28;20036;-61
2022/04/28 01:12:29;;;;;;;5.53;1.95;;;;;;;;;;10326092;28;20033;-61
2022/04/28 01:17:30;;;;;;;4.60;2.42;;;;;;;;;;10325420;28;20023;-62
2022/04/28 01:22:31;;;;;;;3.92;2.17;;;;;;;;;;10325246;28;20061;-62
2022/04/28 01:27:31;;;;;;;4.45;2.60;;;;;;;;;;10324536;28;20035;-61
2022/04/28 01:32:32;;;;;;;4.68;2.28;;;;;;;;;;10325301;28;20031;-61
2022/04/28 01:37:33;;;;;;;3.63;2.08;;;;;;;;;;10324575;28;20027;-61
2022/04/28 01:42:34;;;;;;;4.03;2.25;;;;;;;;;;10325076;28;20483;-61
2022/04/28 01:47:36;;;;;;;4.22;2.20;;;;;;;;;;10317473;28;20030;-61
2022/04/28 01:57:58;;;;;;;5.20;2.58;;;;;;;;;;10325149;28;20121;-61
2022/04/28 02:02:59;;;;;;;3.10;1.85;;;;;;;;;;10331581;28;20065;-61
2022/04/28 02:08:01;;;;;;;2.05;1.85;;;;;;;;;;10331465;28;20414;-60
2022/04/28 02:13:01;;;;;;;6.50;1.92;;;;;;;;;;10332158;28;20045;-60
2022/04/28 02:18:02;;;;;;;2.45;1.88;;;;;;;;;;10330768;28;20030;-61
2022/04/28 02:23:03;;;;;;;4.97;1.88;;;;;;;;;;10331552;28;20038;-60
2022/04/28 02:28:04;;;;;;;2.38;1.90;;;;;;;;;;10331048;28;20117;-60
2022/04/28 02:33:10;;;;;;;3.70;2.03;;;;;;;;;;10331242;28;20038;-60
2022/04/28 02:38:11;;;;;;;2.22;1.75;;;;;;;;;;10330536;28;20034;-60
2022/04/28 02:43:11;;;;;;;2.38;1.80;;;;;;;;;;10330319;28;20038;-60
2022/04/28 02:48:12;;;;;;;3.90;1.83;;;;;;;;;;10330297;28;20026;-61
2022/04/28 02:53:13;;;;;;;2.45;2.00;;;;;;;;;;10322681;28;20042;-60
2022/04/28 02:58:13;;;;;;;2.60;1.98;;;;;;;;;;10323398;28;20034;-60
2022/04/28 03:03:14;;;;;;;2.03;1.80;;;;;;;;;;10329470;28;20039;-60
2022/04/28 03:13:34;;;;;;;2.78;1.98;;;;;;;;;;10326066;28;20446;-60
2022/04/28 03:18:35;;;;;;;2.35;1.52;;;;;;;;;;10323024;28;20042;-60
2022/04/28 03:23:35;;;;;;;2.45;1.70;;;;;;;;;;10329513;28;20376;-60
2022/04/28 03:28:38;;;;;;;2.47;1.70;;;;;;;;;;10328431;28;20026;-60
2022/04/28 03:33:38;;;;;;;2.78;1.80;;;;;;;;;;10328644;28;20494;-60
2022/04/28 03:38:39;;;;;;;3.05;1.58;;;;;;;;;;10328201;28;20065;-60
2022/04/28 03:43:40;;;;;;;1.98;1.63;;;;;;;;;;10328279;28;20426;-61
2022/04/28 03:48:45;;;;;;;3.58;1.70;;;;;;;;;;10319243;28;20034;-60
2022/04/28 03:53:45;;;;;;;2.10;1.70;;;;;;;;;;10328084;28;20034;-59
2022/04/28 03:58:46;;;;;;;2.00;1.75;;;;;;;;;;10320455;28;20046;-60
2022/04/28 04:03:46;;;;;;;2.42;1.77;;;;;;;;;;10320590;28;20049;-60
2022/04/28 04:08:47;;;;;;;2.38;1.80;;;;;;;;;;10319037;28;20089;-60
2022/04/28 04:13:47;;;;;;;2.40;1.67;;;;;;;;;;10327252;28;20031;-60
2022/04/28 04:18:48;;;;;;;3.60;1.83;;;;;;;;;;10327418;28;20038;-61
2022/04/28 04:23:48;;;;;;;2.30;1.80;;;;;;;;;;10327050;28;20034;-61
2022/04/28 04:28:49;;;;;;;2.20;2.00;;;;;;;;;;10327060;28;20038;-61
2022/04/28 04:33:50;;;;;;;4.38;1.58;;;;;;;;;;10327187;28;20069;-61
2022/04/28 04:38:50;;;;;;;3.25;1.70;;;;;;;;;;10319015;28;20494;-61
2022/04/28 04:43:51;;;;;;;3.65;1.88;;;;;;;;;;10325308;28;20398;-60
2022/04/28 04:48:51;;;;;;;2.67;1.60;;;;;;;;;;10325776;28;20038;-61
2022/04/28 04:53:52;;;;;;;1.67;1.58;;;;;;;;;;10326174;28;20078;-61
2022/04/28 04:58:52;;;;;;;3.45;1.58;;;;;;;;;;10324840;28;20169;-61
2022/04/28 05:03:53;;;;;;;2.42;1.50;;;;;;;;;;10316392;28;20042;-60
2022/04/28 05:08:54;;;;;;;2.72;1.60;;;;;;;;;;10316319;28;20048;-61
2022/04/28 05:13:54;;;;;;;5.85;1.40;;;;;;;;;;10323452;28;20081;-61
2022/04/28 05:18:55;;;;;;;2.60;1.50;;;;;;;;;;10320531;28;20042;-61
2022/04/28 05:23:55;;;;;;;1.38;1.25;;;;;;;;;;10321601;28;20034;-61
2022/04/28 05:28:56;;;;;;;3.83;1.50;;;;;;;;;;10324654;28;20121;-61
2022/04/28 05:33:57;;;;;;;1.40;1.30;;;;;;;;;;10325514;28;20045;-60
2022/04/28 05:38:58;;;;;;;1.88;1.70;;;;;;;;;;10333470;28;20096;-60
2022/04/28 05:49:19;;;;;;;1.75;1.52;;;;;;;;;;10355066;28;20038;-62
2022/04/28 05:54:20;;;;;;;1.58;1.48;;;;;;;;;;10332919;28;20037;-63
2022/04/28 05:59:20;;;;;;;2.78;1.65;;;;;;;;;;10328782;28;20033;-63
2022/04/28 06:04:21;;;;;;;1.65;1.48;;;;;;;;;;10332778;28;20039;-63
2022/04/28 06:09:21;;;;;;;3.03;1.52;;;;;;;;;;10324151;28;20046;-63
2022/04/28 06:14:22;;;;;;;1.90;1.63;;;;;;;;;;10325890;28;20041;-61
2022/04/28 06:19:24;;;;;;;1.70;1.30;;;;;;;;;;10332052;28;20430;-61
2022/04/28 06:24:25;;;;;;;2.40;1.60;;;;;;;;;;10331487;28;20034;-61
2022/04/28 06:29:26;;;;;;;3.65;1.52;;;;;;;;;;10329837;28;20038;-60
2022/04/28 06:34:26;;;;;;;2.28;1.45;;;;;;;;;;10330378;28;20034;-62
2022/04/28 06:39:27;;;;;;;1.23;1.10;;;;;;;;;;10329934;28;20130;-62
2022/04/28 06:44:28;;;;;;;2.60;1.58;;;;;;;;;;10331030;28;20038;-62
2022/04/28 06:49:28;;;;;;;1.63;1.52;;;;;;;;;;10329906;28;20037;-61
2022/04/28 06:54:29;;;;;;;2.42;1.55;;;;;;;;;;10330615;28;20027;-64
2022/04/28 06:59:29;;;;;;;2.72;1.40;;;;;;;;;;10330392;28;20034;-62
2022/04/28 07:04:31;;;;;;;1.75;1.42;;;;;;;;;;10329566;28;20092;-61
2022/04/28 07:09:31;;;;;;;3.75;1.40;;;;;;;;;;10352836;28;20053;-61
2022/04/28 07:14:34;;;;;;;2.33;1.58;;;;;;;;;;10323858;28;20037;-59
2022/04/28 07:19:34;;;;;;;1.65;1.35;;;;;;;;;;10314829;28;20113;-61
2022/04/28 07:24:38;;;;;;;2.00;1.30;;;;;;;;;;10329522;28;20042;-61
2022/04/28 07:29:38;;;;;;;1.65;1.20;;;;;;;;;;10329352;28;20062;-61
2022/04/28 07:34:39;;;;;;;1.90;1.65;;;;;;;;;;10329292;28;20030;-61
2022/04/28 07:39:39;;;;;;;1.60;1.50;;;;;;;;;;10329967;28;20030;-60
2022/04/28 07:44:40;;;;;;;3.22;1.50;;;;;;;;;;10328963;28;20086;-61
2022/04/28 07:49:41;;;;;;;1.45;1.25;;;;;;;;;;10327987;28;20030;-60
2022/04/28 07:54:41;;;;;;;2.25;1.50;;;;;;;;;;10328606;28;20077;-63
2022/04/28 07:59:42;;;;;;;1.63;1.50;;;;;;;;;;10326934;28;20034;-59
2022/04/28 08:04:43;;;;;;;1.83;1.30;;;;;;;;;;10326402;28;20054;-62
2022/04/28 08:09:44;;;;;;;1.52;1.25;;;;;;;;;;10319122;28;20038;-62
2022/04/28 08:14:45;;;;;;;1.75;1.40;;;;;;;;;;10327984;28;20026;-62
2022/04/28 08:19:46;;;;;;;2.00;1.48;;;;;;;;;;10314865;28;20034;-63
2022/04/28 08:24:46;;;;;;;2.38;1.63;;;;;;;;;;10326669;28;20043;-63
2022/04/28 08:29:47;;;;;;;6.72;1.70;;;;;;;;;;10327010;28;20084;-65
2022/04/28 08:34:47;;;;;;;1.35;1.25;;;;;;;;;;10326828;28;20498;-59
2022/04/28 08:39:48;;;;;;;5.47;1.40;;;;;;;;;;10318190;28;20035;-50
2022/04/28 08:44:51;;;;;;;23.77;2.42;;;;;;;;;;10318157;28;20038;-54
2022/04/28 08:49:52;;;;;;;6.90;1.80;;;;;;;;;;10317716;28;20034;-53
2022/04/28 08:54:55;;;;;;;5.72;1.40;;;;;;;;;;10326976;28;20036;-54
2022/04/28 08:59:56;;;;;;;3.78;1.60;;;;;;;;;;10318699;28;20043;-56
2022/04/28 09:05:03;;;;;;;10.85;1.77;;;;;;;;;;10318602;28;20382;-59
2022/04/28 09:10:27;;;;;;;7.70;2.13;;;;;;;;;;10324201;28;20050;-56
2022/04/28 09:15:28;;;;;;;2.50;1.85;;;;;;;;;;10325834;28;20050;-57
2022/04/28 09:20:28;;;;;;;3.10;1.90;;;;;;;;;;10318918;28;20045;-57
2022/04/28 09:25:31;;;;;;;3.83;1.90;;;;;;;;;;10321999;28;20041;-55
2022/04/28 09:30:43;;;;;;;4.57;1.70;;;;;;;;;;10315351;28;20026;-54
2022/04/28 09:35:50;;;;;;;4.45;1.50;;;;;;;;;;10315805;28;20117;-57
2022/04/28 09:46:10;;;;;;;7.65;2.17;;;;;;;;;;10322437;28;20109;-61
2022/04/28 09:51:13;;;;;;;4.90;1.70;;;;;;;;;;10325350;28;20026;-58
2022/04/28 09:56:16;;;;;;;6.53;1.90;;;;;;;;;;10353369;28;20173;-57
2022/04/28 10:01:18;;;;;;;1.90;1.30;;;;;;;;;;10319559;28;20038;-55
2022/04/28 10:06:21;;;;;;;5.88;1.85;;;;;;;;;;10322548;28;20157;-55
2022/04/28 10:11:24;;;;;;;8.43;2.15;;;;;;;;;;10323328;28;20482;-55
2022/04/28 10:16:25;;;;;;;4.07;1.70;;;;;;;;;;10323782;28;20030;-58
2022/04/28 10:21:49;;;;;;;2.90;1.50;;;;;;;;;;10328133;28;20047;-58
2022/04/28 10:32:23;;;;;;;3.83;1.88;;;;;;;;;;10322569;28;20038;-58
2022/04/28 10:37:34;;;;;;;3.17;1.45;;;;;;;;;;10326865;28;20038;-59
2022/04/28 10:42:35;;;;;;;2.20;1.30;;;;;;;;;;10328977;28;20573;-57
2022/04/28 10:47:41;;;;;;;3.03;1.85;;;;;;;;;;10329121;28;20042;-57
2022/04/28 10:52:41;;;;;;;5.40;1.90;;;;;;;;;;10327500;28;20030;-62
2022/04/28 10:57:42;;;;;;;3.25;1.48;;;;;;;;;;10329699;28;20100;-61
2022/04/28 11:02:46;;;;;;;6.45;1.38;;;;;;;;;;10327150;28;20590;-62
2022/04/28 11:07:46;;;;;;;6.85;1.88;;;;;;;;;;10326567;28;20502;-63
2022/04/28 11:12:50;;;;;;;10.75;1.70;;;;;;;;;;10330717;28;20034;-60
2022/04/28 11:17:51;;;;;;;4.20;1.75;;;;;;;;;;10326654;28;20041;-58
2022/04/28 11:22:52;;;;;;;6.75;1.73;;;;;;;;;;10329464;28;20061;-58
2022/04/28 11:27:54;;;;;;;2.30;1.50;;;;;;;;;;10329391;28;20057;-62
2022/04/28 11:32:58;;;;;;;6.35;1.73;;;;;;;;;;10318284;28;20026;-58
2022/04/28 11:38:00;;;;;;;3.80;1.90;;;;;;;;;;10320799;28;20038;-59
2022/04/28 11:43:04;;;;;;;4.85;2.17;;;;;;;;;;10323979;28;20030;-59
2022/04/28 11:48:04;;;;;;;5.57;2.53;;;;;;;;;;10326015;28;20053;-62
2022/04/28 11:53:12;;;;;;;3.80;2.28;;;;;;;;;;10324448;28;20417;-59
2022/04/28 11:58:15;;;;;;;3.67;2.50;;;;;;;;;;10324553;28;20532;-59
2022/04/28 12:03:28;;;;;;;4.68;2.00;;;;;;;;;;10327459;28;20070;-62
2022/04/28 12:08:28;;;;;;;5.82;2.63;;;;;;;;;;10324649;28;20054;-59
2022/04/28 12:24:18;;;;;;;4.97;2.25;;;;;;;;;;10315861;28;20121;-62
2022/04/28 12:29:19;;;;;;;6.45;2.47;;;;;;;;;;10325236;28;20038;-60
2022/04/28 12:34:24;;;;;;;2.97;1.90;;;;;;;;;;10322206;28;20407;-59
2022/04/28 12:39:28;;;;;;;4.00;2.25;;;;;;;;;;10308104;28;20486;-63
2022/04/28 12:44:28;;;;;;;3.22;2.08;;;;;;;;;;10350244;28;20038;-63
2022/04/28 12:49:48;;;;;;;6.63;1.98;;;;;;;;;;10318142;28;20022;-62
2022/04/28 12:54:48;;;;;;;3.38;2.30;;;;;;;;;;10325006;28;20046;-63
2022/04/28 12:59:49;;;;;;;4.90;2.10;;;;;;;;;;10324284;28;20037;-61
2022/04/28 13:04:50;;;;;;;2.72;1.95;;;;;;;;;;10321334;28;20556;-60
2022/04/28 13:09:50;;;;;;;2.35;1.80;;;;;;;;;;10319548;28;20104;-59
2022/04/28 13:14:52;;;;;;;15.02;2.40;;;;;;;;;;10323687;28;20045;-62
2022/04/28 13:19:53;;;;;;;8.48;2.15;;;;;;;;;;10323131;28;20538;-63
2022/04/28 13:24:54;;;;;;;3.70;1.80;;;;;;;;;;10323485;28;20030;-62
2022/04/28 13:29:54;;;;;;;12.43;2.17;;;;;;;;;;10315456;28;20042;-65
2022/04/28 13:34:55;;;;;;;21.02;3.33;;;;;;;;;;10322700;28;20031;-62
2022/04/28 13:39:56;;;;;;;38.08;3.10;;;;;;;;;;10314965;28;20038;-64
2022/04/28 13:44:56;;;;;;;44.60;4.45;;;;;;;;;;10314735;28;20100;-55
2022/04/28 13:49:57;;;;;;;57.17;3.72;;;;;;;;;;10318195;28;20030;-43
2022/04/28 13:54:57;;;;;;;17.35;3.13;;;;;;;;;;10323388;28;20055;-45
2022/04/28 14:00:00;;;;;;;12.27;2.55;;;;;;;;;;10331841;28;20031;-54
2022/04/28 14:05:00;;;;;;;14.68;2.63;;;;;;;;;;10329262;28;20097;-43
2022/04/28 14:10:01;;;;;;;19.88;3.00;;;;;;;;;;10330044;28;20050;-47
2022/04/28 14:15:02;;;;;;;82.07;6.50;;;;;;;;;;10327312;28;20481;-48
2022/04/28 14:20:06;;;;;;;67.75;6.43;;;;;;;;;;10325297;28;20088;-46
2022/04/28 14:25:07;;;;;;;34.20;4.35;;;;;;;;;;10327349;28;20026;-54
2022/04/28 14:30:09;;;;;;;33.05;4.03;;;;;;;;;;10329231;28;20034;-45
2022/04/28 14:35:11;;;;;;;10.68;3.05;;;;;;;;;;10325107;28;20121;-44
2022/04/28 14:40:13;;;;;;;14.13;3.47;;;;;;;;;;10327975;28;20034;-45
2022/04/28 14:45:14;;;;;;;19.40;3.08;;;;;;;;;;10324429;28;20062;-45
2022/04/28 14:55:33;;;;;;;36.80;4.13;;;;;;;;;;10327572;28;20034;-62
2022/04/28 15:00:35;;;;;;;27.65;3.50;;;;;;;;;;10328279;28;20034;-45
2022/04/28 15:05:36;;;;;;;21.27;3.40;;;;;;;;;;10331004;28;20049;-48
2022/04/28 15:10:39;;;;;;;20.40;3.47;;;;;;;;;;10322927;28;20038;-45
2022/04/28 15:15:41;;;;;;;8.60;3.00;;;;;;;;;;10349403;28;20171;-46
2022/04/28 15:20:41;;;;;;;20.80;2.58;;;;;;;;;;10326103;28;20046;-43
2022/04/28 15:25:42;;;;;;;7.68;2.45;;;;;;;;;;10321282;28;20045;-44
2022/04/28 15:30:43;;;;;;;7.10;2.85;;;;;;;;;;10327695;28;20037;-46
2022/04/28 15:35:43;;;;;;;8.57;2.42;;;;;;;;;;10324698;28;20043;-51
2022/04/28 15:40:44;;;;;;;13.95;2.65;;;;;;;;;;10333250;28;20038;-43
2022/04/28 15:45:44;;;;;;;8.25;2.33;;;;;;;;;;10317960;28;20040;-43
2022/04/28 15:50:45;;;;;;;6.20;2.20;;;;;;;;;;10314718;28;20065;-46
2022/04/28 15:55:45;;;;;;;8.27;2.17;;;;;;;;;;10354082;28;20086;-43
2022/04/28 16:00:46;;;;;;;9.90;2.17;;;;;;;;;;10323655;28;20174;-43
2022/04/28 16:05:47;;;;;;;7.43;2.03;;;;;;;;;;10322640;28;20033;-51
2022/04/28 16:10:47;;;;;;;8.07;2.30;;;;;;;;;;10341008;28;20050;-61
2022/04/28 16:15:50;;;;;;;6.80;3.15;;;;;;;;;;10328345;28;20430;-43
2022/04/28 16:20:51;;;;;;;9.00;2.20;;;;;;;;;;10326786;28;20605;-43
2022/04/28 16:25:51;;;;;;;5.13;2.47;;;;;;;;;;10325094;28;20113;-64
2022/04/28 16:30:52;;;;;;;9.85;2.45;;;;;;;;;;10321751;28;20061;-45
2022/04/28 16:35:53;;;;;;;4.15;1.95;;;;;;;;;;10325403;28;20486;-64
2022/04/28 16:40:54;;;;;;;5.07;2.28;;;;;;;;;;10322714;28;20058;-43
2022/04/28 16:45:56;;;;;;;3.67;1.90;;;;;;;;;;10325726;28;20042;-55
2022/04/28 16:50:58;;;;;;;4.10;1.80;;;;;;;;;;10326750;28;20034;-61
2022/04/28 16:55:59;;;;;;;2.05;1.60;;;;;;;;;;10319636;28;20387;-44
2022/04/28 17:01:00;;;;;;;6.85;2.17;;;;;;;;;;10318731;28;20113;-47
2022/04/28 17:06:01;;;;;;;10.05;2.35;;;;;;;;;;10324026;28;20501;-46
2022/04/28 17:11:02;;;;;;;2.05;1.83;;;;;;;;;;10330085;28;20042;-48
2022/04/28 17:16:03;;;;;;;6.85;2.00;;;;;;;;;;10323252;28;20042;-43
2022/04/28 17:21:04;;;;;;;5.10;1.75;;;;;;;;;;10326201;28;20074;-44
2022/04/28 17:26:06;;;;;;;3.67;2.30;;;;;;;;;;10315460;28;20113;-46
2022/04/28 17:31:07;;;;;;;4.00;2.17;;;;;;;;;;10324433;28;20069;-45
2022/04/28 17:36:08;;;;;;;5.47;1.85;;;;;;;;;;10327726;28;20026;-44
2022/04/28 17:41:08;;;;;;;6.70;2.00;;;;;;;;;;10325622;28;20163;-43
2022/04/28 17:46:09;;;;;;;6.47;1.75;;;;;;;;;;10332737;28;20030;-41
2022/04/28 17:51:10;;;;;;;5.15;2.15;;;;;;;;;;10332951;28;20026;-47
2022/04/28 18:01:31;;;;;;;4.30;2.05;;;;;;;;;;10333060;28;20186;-41
2022/04/28 18:06:32;;;;;;;4.38;2.30;;;;;;;;;;10324216;28;20038;-56
2022/04/28 18:11:33;;;;;;;4.03;2.17;;;;;;;;;;10329384;28;20050;-53
2022/04/28 18:16:36;;;;;;;5.03;2.75;;;;;;;;;;10330084;28;20038;-56
2022/04/28 18:21:39;;;;;;;5.15;2.25;;;;;;;;;;10328877;28;20281;-55
2022/04/28 18:26:44;;;;;;;5.75;2.35;;;;;;;;;;10329606;28;20038;-55
2022/04/28 18:31:44;;;;;;;7.05;2.20;;;;;;;;;;10326158;28;20046;-59
2022/04/28 18:47:27;;;;;;;4.20;2.20;;;;;;;;;;10332207;28;20489;-59
2022/04/28 18:52:29;;;;;;;4.78;2.20;;;;;;;;;;10320534;28;20054;-57
2022/04/28 18:57:29;;;;;;;5.40;2.35;;;;;;;;;;10330474;28;20061;-58
2022/04/28 19:02:30;;;;;;;3.92;2.00;;;;;;;;;;10329763;28;20113;-44
2022/04/28 19:07:32;;;;;;;7.85;2.13;;;;;;;;;;10318530;28;20049;-41
2022/04/28 19:12:34;;;;;;;4.10;2.10;;;;;;;;;;10322324;28;20030;-41
2022/04/28 19:17:38;;;;;;;4.25;2.22;;;;;;;;;;10330864;28;20045;-44
2022/04/28 19:22:39;;;;;;;7.00;2.03;;;;;;;;;;10328514;28;20489;-59
2022/04/28 19:27:40;;;;;;;5.20;2.00;;;;;;;;;;10319197;28;20424;-42
2022/04/28 19:32:40;;;;;;;5.10;2.35;;;;;;;;;;10320197;28;20038;-41
2022/04/28 19:37:42;;;;;;;6.00;2.30;;;;;;;;;;10324612;28;20030;-45
2022/04/28 19:42:42;;;;;;;4.85;2.00;;;;;;;;;;10317860;28;20040;-44
2022/04/28 19:47:44;;;;;;;9.32;2.22;;;;;;;;;;10321718;28;20505;-57
2022/04/28 19:52:45;;;;;;;7.43;2.20;;;;;;;;;;10323507;28;20121;-50
2022/04/28 19:57:47;;;;;;;5.95;2.03;;;;;;;;;;10317138;28;20039;-53
2022/04/28 20:02:50;;;;;;;3.53;1.95;;;;;;;;;;10295618;28;20034;-42
2022/04/28 20:07:52;;;;;;;4.97;2.72;;;;;;;;;;10295353;28;20047;-42
2022/04/28 20:12:54;;;;;;;6.63;2.15;;;;;;;;;;10295473;28;20043;-42
2022/04/28 20:17:57;;;;;;;5.15;2.63;;;;;;;;;;10295117;28;20059;-42
2022/04/28 20:22:59;;;;;;;13.05;2.40;;;;;;;;;;10296623;28;20027;-41
2022/04/28 20:28:01;;;;;;;20.73;2.80;;;;;;;;;;10294847;28;20391;-42
2022/04/28 20:33:03;;;;;;;15.35;2.72;;;;;;;;;;10294693;28;20038;-42
2022/04/28 20:38:06;;;;;;;10.57;2.92;;;;;;;;;;10295059;28;20042;-42
2022/04/28 20:43:07;;;;;;;8.07;3.10;;;;;;;;;;10293204;28;20065;-42
2022/04/28 20:48:09;;;;;;;14.13;3.80;;;;;;;;;;10294357;28;20047;-42
2022/04/28 20:53:14;;;;;;;7.30;2.85;;;;;;;;;;10294732;28;20058;-52
2022/04/28 20:58:15;;;;;;;13.23;3.30;;;;;;;;;;10294529;28;20034;-42
2022/04/28 21:03:17;;;;;;;15.65;3.83;;;;;;;;;;10293917;28;20372;-42
2022/04/28 21:08:19;;;;;;;24.42;3.95;;;;;;;;;;10293461;28;20047;-42
2022/04/28 21:13:21;;;;;;;11.27;3.70;;;;;;;;;;10294299;28;20038;-42
2022/04/28 21:18:23;;;;;;;13.20;3.83;;;;;;;;;;10293557;28;20451;-42
2022/04/28 21:23:24;;;;;;;19.10;3.10;;;;;;;;;;10293969;28;20415;-44
2022/04/28 21:28:26;;;;;;;14.10;3.28;;;;;;;;;;10293236;28;20027;-42
2022/04/28 21:33:29;;;;;;;11.50;3.40;;;;;;;;;;10293271;28;20030;-43
2022/04/28 21:38:30;;;;;;;14.45;3.65;;;;;;;;;;10292964;28;20031;-42
2022/04/28 21:43:32;;;;;;;12.82;3.47;;;;;;;;;;10292936;28;20118;-43
2022/04/28 21:48:34;;;;;;;8.77;3.63;;;;;;;;;;10292754;28;20034;-42
2022/04/28 21:53:38;;;;;;;9.75;2.65;;;;;;;;;;10292675;28;20042;-42
2022/04/28 21:58:40;;;;;;;5.22;2.78;;;;;;;;;;10291401;28;20077;-42
2022/04/28 22:14:23;;;;;;;6.90;2.92;;;;;;;;;;10308564;28;20130;-42
2022/04/28 22:19:24;;;;;;;7.70;2.95;;;;;;;;;;10299021;28;20031;-42
2022/04/28 22:24:26;;;;;;;9.10;2.95;;;;;;;;;;10299568;28;20082;-42
2022/04/28 22:29:27;;;;;;;9.57;3.03;;;;;;;;;;10299268;28;20023;-42
2022/04/28 22:34:29;;;;;;;9.80;3.10;;;;;;;;;;10299764;28;20023;-42
2022/04/28 22:39:31;;;;;;;8.20;3.28;;;;;;;;;;10298993;28;20058;-42
2022/04/28 22:44:32;;;;;;;7.20;2.78;;;;;;;;;;10299400;28;20037;-44
2022/04/28 22:49:34;;;;;;;4.97;2.50;;;;;;;;;;10299240;28;20170;-43
2022/04/28 22:54:35;;;;;;;7.50;2.72;;;;;;;;;;10299161;28;20031;-41
2022/04/28 22:59:37;;;;;;;6.70;3.03;;;;;;;;;;10298188;28;20034;-43
2022/04/28 23:04:41;;;;;;;5.18;2.58;;;;;;;;;;10298077;28;20525;-41
2022/04/28 23:09:42;;;;;;;5.63;2.55;;;;;;;;;;10297976;28;20038;-44
2022/04/28 23:14:44;;;;;;;9.55;2.95;;;;;;;;;;10297771;28;20045;-43
2022/04/28 23:19:45;;;;;;;7.72;2.80;;;;;;;;;;10298645;28;20034;-50
2022/04/28 23:24:47;;;;;;;7.53;3.05;;;;;;;;;;10298406;28;20026;-45
2022/04/28 23:29:49;;;;;;;12.77;3.17;;;;;;;;;;10296765;28;20050;-43
2022/04/28 23:40:11;;;;;;;6.00;2.55;;;;;;;;;;10297367;28;20027;-43
2022/04/28 23:45:14;;;;;;;7.22;2.95;;;;;;;;;;10296716;28;20118;-43
2022/04/28 23:50:15;;;;;;;21.13;3.13;;;;;;;;;;10296346;28;20042;-43
2022/04/28 23:55:17;;;;;;;9.65;3.20;;;;;;;;;;10297907;28;20026;-42
